ドバイ の空港の天気 - METARとTAF

ドバイ国際空港 ( OMDB / DXB ) - アラブ首長国連邦 ドバイ
飛行場実況気象(Metar)
観測時間09/26 07:00 GST (09/26 03:00 UTC)
風向・風速南 2m/s
視程6000m
天気現象
少しの雲 雲底高度 1070m
気温31℃
湿度62%
気圧1007hPa
METAROMDB 260300Z 17004KT 6000 FEW035 31/23 Q1007 NOSIG
過去の天気等 Google飛行場航空写真 Wunderground天気予報

過去48時間のMETAR

飛行場予報(TAF)
発表時間: 9/26 02:52 GST (9/25 22:52 UTC)
予報対象時間: 26日4時 GST ~ 27日10時 GST
風向・風速南 4m/s
視程7000m
なし
26日5時 GST から 確率 30% で
視程3000m
天気現象煙霧
26日11時 GST ~ 26日13時 GST に徐々に
風向・風速西 7m/s
26日19時 GST ~ 26日21時 GST に徐々に
風向・風速東南東 3m/s
27日5時 GST から 確率 30% で
視程4000m
天気現象煙霧
TAF OMDB 252252Z 2600/2706 19007KT 7000 NSC
PROB30 2601/2604 3000 HZ
BECMG 2607/2609 28013KT
BECMG 2615/2617 11005KT
PROB30 2701/2704 4000 HZ